Gibraltar, Gibraltar

4:05 AM CET on December 10, 2016 (GMT +0100)
Calle Oviedo | | Change Station

Elev 26 ft 36.17 °N, 5.35 °W | Updated 4 minutes ago

Mostly Cloudy
Mostly Cloudy
62.1 °F
Feels Like 62.1 °F
N
1.9
Wind Variable Wind from ENE
Gusts 4.3 mph

Today
High -- | Low -- °F
--% Chance of Precip.
Yesterday
High -- | Low -- °F
Precip. -- in
Pressure 30.33 in
Visibility 6.2 miles
Clouds Few 1600 ft
Dew Point 62 °F
Humidity 100%
Rainfall Not available.
Snow Depth Not available.
8:21 AM 6:06 PM
Waxing Gibbous, 79% visible
METAR GMTT 100300Z 10010KT 9999 FEW016 15/12 Q1027 NOSIG
Pressure 30.33 in
Visibility 6.2 miles
Clouds Few 1600 ft
Dew Point 62 °F
Humidity 100%
Rainfall Not available.
Snow Depth Not available.
8:21 AM 6:06 PM
Waxing Gibbous, 79% visible
METAR GMTT 100300Z 10010KT 9999 FEW016 15/12 Q1027 NOSIG

10-Day Weather Forecast

×

Almanac

Astronomy

Dec. 10, 2016 Rise Set
Actual Time
Civil Twilight
Nautical Twilight
Astronomical Twilight
Moon
Length of Visible Light
Length of Day
Tomorrow will be .
, % of the Moon is Illuminated

Today's Extremes

Country Highs Country Lows

Community

WunderPhotos

Upload Photos

1,956,532 photos uploaded!

WunderBlog® & News

Nearby

Air Quality

  Air Quality AQ Index Pollutant
Not available.

Snow Depth

Station Depth Elevation

Earthquake Activity

City Distance Mag. Time & Date
Minimum magnitude displayed is 2.5.

Coastal Water Temperatures

Place Temperature

Stations

Nearby Weather Stations

Station Location Temp. Windchill Dew Point Humidity Wind Precip. Elev Updated Type